| time (UTC) | temp C | wind direction | speed KPH | gust KPH | rain 1hr cm | rain 24hr cm | rain mn cm | humidity % | barometer mb |
| 20260507151531 | 6 | 9 | 11.3 | 14.5 | 0.00 | 0.03 | 0.00 | 65 | 1013.1 |
| 20260507141529 | 6 | 355 | 8.0 | 11.3 | 0.00 | 0.05 | 0.00 | 65 | 1013.1 |
| 20260507134700 | 6 | 360 | 8.0 | 12.9 | 0.00 | 0.08 | 0.00 | 66 | 1013.3 |
| 20260507123029 | 5 | 341 | 0.0 | 3.2 | 0.00 | 0.10 | 0.00 | 69 | 1013.6 |
| 20260507113100 | 5 | 341 | 1.6 | 4.8 | 0.00 | 0.15 | 0.00 | 68 | 1013.5 |
| 20260507101517 | 5 | 332 | 6.4 | 12.9 | 0.00 | 0.25 | 0.00 | 55 | 1012.9 |
| 20260507093045 | 3 | 342 | 11.3 | 14.5 | 0.00 | 0.30 | 0.00 | 80 | 1013.1 |
| 20260507084654 | 3 | 144 | 0.0 | 4.8 | 0.00 | 0.46 | 0.00 | 81 | 1013.0 |
| 20260507073106 | 3 | 11 | 1.6 | 4.8 | 0.00 | 0.69 | 0.00 | 80 | 1012.6 |
| 20260507063105 | 3 | 11 | 1.6 | 8.0 | 0.00 | 0.84 | 0.00 | 77 | 1013.0 |
| 20260507053007 | 4 | 5 | 1.6 | 3.2 | 0.00 | 0.91 | 0.00 | 77 | 1013.1 |
| 20260507043029 | 4 | 5 | 1.6 | 3.2 | 0.00 | 0.97 | 0.00 | 74 | 1013.4 |
| 20260507034635 | 5 | 346 | 3.2 | 8.0 | 0.00 | 0.97 | 0.97 | 75 | 1013.6 |
| 20260507024607 | 5 | 194 | 0.0 | 3.2 | 0.00 | 1.02 | 0.97 | 73 | 1013.4 |
| 20260507013014 | 5 | 297 | 3.2 | 4.8 | 0.00 | 1.19 | 0.97 | 74 | 1013.4 |
| 20260507001504 | 6 | 296 | 3.2 | 4.8 | 0.00 | 1.32 | 0.97 | 73 | 1012.8 |
| 20260506234653 | 6 | 297 | 0.0 | 1.6 | 0.00 | 1.50 | 0.97 | 73 | 1012.6 |
| 20260506224627 | 6 | 23 | 3.2 | 4.8 | 0.00 | 1.96 | 0.97 | 82 | 1012.3 |
| 20260506203146 | 5 | 14 | 20.9 | 25.7 | 0.00 | 2.21 | 0.94 | 76 | 1010.8 |
| 20260506193026 | 7 | 58 | 14.5 | 19.3 | 0.00 | 2.21 | 0.94 | 75 | 1010.3 |
| 20260506183030 | 8 | 57 | 16.1 | 19.3 | 0.00 | 2.21 | 0.94 | 75 | 1010.1 |
| 20260506174643 | 7 | 63 | 16.1 | 19.3 | 0.00 | 2.21 | 0.94 | 74 | 1010.1 |
| 20260506163009 | 8 | 140 | 1.6 | 6.4 | 0.00 | 2.21 | 0.94 | 76 | 1010.0 |
| 20260506153009 | 7 | 81 | 1.6 | 6.4 | 0.00 | 2.21 | 0.94 | 81 | 1009.9 |